sensor_id;sensor_type;location;lat;lon;timestamp;P1;durP1;ratioP1;P2;durP2;ratioP2
22660;SDS011;11497;52.222;21.246;2024-03-06T00:00:03;136.30;;;61.42;;
22660;SDS011;11497;52.222;21.246;2024-03-06T00:02:57;129.20;;;58.78;;
22660;SDS011;11497;52.222;21.246;2024-03-06T00:05:25;122.93;;;58.90;;
22660;SDS011;11497;52.222;21.246;2024-03-06T00:07:53;126.43;;;58.38;;
22660;SDS011;11497;52.222;21.246;2024-03-06T00:10:21;132.05;;;58.78;;
22660;SDS011;11497;52.222;21.246;2024-03-06T00:12:49;123.72;;;57.97;;
22660;SDS011;11497;52.222;21.246;2024-03-06T00:15:18;132.18;;;59.38;;
22660;SDS011;11497;52.222;21.246;2024-03-06T00:17:46;120.65;;;57.70;;
22660;SDS011;11497;52.222;21.246;2024-03-06T00:20:14;124.97;;;59.53;;
22660;SDS011;11497;52.222;21.246;2024-03-06T00:22:42;125.65;;;59.08;;
22660;SDS011;11497;52.222;21.246;2024-03-06T00:25:10;123.30;;;57.60;;
22660;SDS011;11497;52.222;21.246;2024-03-06T00:27:38;114.70;;;57.28;;
22660;SDS011;11497;52.222;21.246;2024-03-06T00:30:06;119.18;;;56.30;;
22660;SDS011;11497;52.222;21.246;2024-03-06T00:32:34;108.20;;;55.80;;
22660;SDS011;11497;52.222;21.246;2024-03-06T00:35:02;108.97;;;55.13;;
22660;SDS011;11497;52.222;21.246;2024-03-06T00:37:31;104.32;;;54.33;;
22660;SDS011;11497;52.222;21.246;2024-03-06T00:40:00;110.93;;;53.33;;
22660;SDS011;11497;52.222;21.246;2024-03-06T00:42:29;101.18;;;52.35;;
22660;SDS011;11497;52.222;21.246;2024-03-06T00:44:57;102.10;;;52.17;;
22660;SDS011;11497;52.222;21.246;2024-03-06T00:47:25;96.45;;;49.70;;
22660;SDS011;11497;52.222;21.246;2024-03-06T00:49:54;97.75;;;50.83;;
22660;SDS011;11497;52.222;21.246;2024-03-06T00:52:22;94.00;;;49.70;;
22660;SDS011;11497;52.222;21.246;2024-03-06T00:54:49;91.82;;;49.40;;
22660;SDS011;11497;52.222;21.246;2024-03-06T00:57:17;92.22;;;49.97;;
22660;SDS011;11497;52.222;21.246;2024-03-06T00:59:45;84.18;;;47.92;;
22660;SDS011;11497;52.222;21.246;2024-03-06T01:02:14;80.13;;;44.35;;
22660;SDS011;11497;52.222;21.246;2024-03-06T01:04:42;78.53;;;44.83;;
22660;SDS011;11497;52.222;21.246;2024-03-06T01:07:10;82.40;;;45.85;;
22660;SDS011;11497;52.222;21.246;2024-03-06T01:09:38;79.60;;;43.47;;
22660;SDS011;11497;52.222;21.246;2024-03-06T01:12:06;81.95;;;44.42;;
22660;SDS011;11497;52.222;21.246;2024-03-06T01:14:34;73.85;;;43.10;;
22660;SDS011;11497;52.222;21.246;2024-03-06T01:17:06;74.07;;;42.22;;
22660;SDS011;11497;52.222;21.246;2024-03-06T01:19:33;78.10;;;40.42;;
22660;SDS011;11497;52.222;21.246;2024-03-06T01:22:02;74.60;;;40.15;;
22660;SDS011;11497;52.222;21.246;2024-03-06T01:24:30;72.70;;;41.45;;
22660;SDS011;11497;52.222;21.246;2024-03-06T01:26:58;70.22;;;38.65;;
22660;SDS011;11497;52.222;21.246;2024-03-06T01:29:29;71.70;;;40.45;;
22660;SDS011;11497;52.222;21.246;2024-03-06T01:31:57;70.50;;;38.83;;
22660;SDS011;11497;52.222;21.246;2024-03-06T01:34:26;66.05;;;37.28;;
22660;SDS011;11497;52.222;21.246;2024-03-06T01:36:54;71.88;;;38.30;;
22660;SDS011;11497;52.222;21.246;2024-03-06T01:39:22;64.13;;;38.00;;
22660;SDS011;11497;52.222;21.246;2024-03-06T01:41:50;63.35;;;36.78;;
22660;SDS011;11497;52.222;21.246;2024-03-06T01:44:18;65.07;;;36.85;;
22660;SDS011;11497;52.222;21.246;2024-03-06T01:46:47;63.45;;;37.17;;
22660;SDS011;11497;52.222;21.246;2024-03-06T01:49:15;68.68;;;37.40;;
22660;SDS011;11497;52.222;21.246;2024-03-06T01:51:58;58.63;;;35.50;;
22660;SDS011;11497;52.222;21.246;2024-03-06T01:54:28;60.60;;;34.67;;
22660;SDS011;11497;52.222;21.246;2024-03-06T01:56:59;61.00;;;35.65;;
22660;SDS011;11497;52.222;21.246;2024-03-06T01:59:29;63.78;;;36.17;;
22660;SDS011;11497;52.222;21.246;2024-03-06T02:02:05;59.97;;;34.10;;
22660;SDS011;11497;52.222;21.246;2024-03-06T02:04:35;57.33;;;35.05;;
22660;SDS011;11497;52.222;21.246;2024-03-06T02:07:04;58.22;;;33.72;;
22660;SDS011;11497;52.222;21.246;2024-03-06T02:09:37;60.25;;;33.67;;
22660;SDS011;11497;52.222;21.246;2024-03-06T02:12:06;52.40;;;32.05;;
22660;SDS011;11497;52.222;21.246;2024-03-06T02:14:35;58.83;;;32.97;;
22660;SDS011;11497;52.222;21.246;2024-03-06T02:17:04;52.33;;;31.40;;
22660;SDS011;11497;52.222;21.246;2024-03-06T02:19:38;52.92;;;30.30;;
22660;SDS011;11497;52.222;21.246;2024-03-06T02:22:07;54.05;;;30.52;;
22660;SDS011;11497;52.222;21.246;2024-03-06T02:24:36;53.55;;;31.00;;
22660;SDS011;11497;52.222;21.246;2024-03-06T02:27:05;49.90;;;30.40;;
22660;SDS011;11497;52.222;21.246;2024-03-06T02:29:33;55.67;;;29.88;;
22660;SDS011;11497;52.222;21.246;2024-03-06T02:32:01;50.83;;;29.33;;
22660;SDS011;11497;52.222;21.246;2024-03-06T02:34:29;49.00;;;30.67;;
22660;SDS011;11497;52.222;21.246;2024-03-06T02:36:58;53.00;;;30.50;;
22660;SDS011;11497;52.222;21.246;2024-03-06T02:39:25;50.75;;;29.08;;
22660;SDS011;11497;52.222;21.246;2024-03-06T02:41:54;56.15;;;30.10;;
22660;SDS011;11497;52.222;21.246;2024-03-06T02:44:21;48.03;;;29.42;;
22660;SDS011;11497;52.222;21.246;2024-03-06T02:46:50;47.25;;;28.83;;
22660;SDS011;11497;52.222;21.246;2024-03-06T02:49:18;50.70;;;28.67;;
22660;SDS011;11497;52.222;21.246;2024-03-06T02:51:46;52.35;;;29.13;;
22660;SDS011;11497;52.222;21.246;2024-03-06T02:54:14;52.72;;;29.42;;
22660;SDS011;11497;52.222;21.246;2024-03-06T02:56:43;47.65;;;29.00;;
22660;SDS011;11497;52.222;21.246;2024-03-06T02:59:10;52.03;;;28.98;;
22660;SDS011;11497;52.222;21.246;2024-03-06T03:01:39;50.85;;;29.33;;
22660;SDS011;11497;52.222;21.246;2024-03-06T03:04:06;48.05;;;29.58;;
22660;SDS011;11497;52.222;21.246;2024-03-06T03:06:34;47.75;;;28.33;;
22660;SDS011;11497;52.222;21.246;2024-03-06T03:09:02;57.75;;;29.75;;
22660;SDS011;11497;52.222;21.246;2024-03-06T03:11:30;44.67;;;28.27;;
22660;SDS011;11497;52.222;21.246;2024-03-06T03:13:59;52.30;;;29.45;;
22660;SDS011;11497;52.222;21.246;2024-03-06T03:16:27;48.63;;;28.25;;
22660;SDS011;11497;52.222;21.246;2024-03-06T03:18:54;48.22;;;28.17;;
22660;SDS011;11497;52.222;21.246;2024-03-06T03:21:23;48.33;;;28.02;;
22660;SDS011;11497;52.222;21.246;2024-03-06T03:23:51;44.42;;;26.05;;
22660;SDS011;11497;52.222;21.246;2024-03-06T03:26:19;45.90;;;28.58;;
22660;SDS011;11497;52.222;21.246;2024-03-06T03:28:47;48.22;;;27.52;;
22660;SDS011;11497;52.222;21.246;2024-03-06T03:31:15;49.00;;;28.05;;
22660;SDS011;11497;52.222;21.246;2024-03-06T03:33:43;44.65;;;26.50;;
22660;SDS011;11497;52.222;21.246;2024-03-06T03:36:11;53.67;;;28.52;;
22660;SDS011;11497;52.222;21.246;2024-03-06T03:38:39;46.50;;;26.67;;
22660;SDS011;11497;52.222;21.246;2024-03-06T03:41:08;43.22;;;25.50;;
22660;SDS011;11497;52.222;21.246;2024-03-06T03:43:41;47.33;;;25.88;;
22660;SDS011;11497;52.222;21.246;2024-03-06T03:46:09;42.40;;;25.85;;
22660;SDS011;11497;52.222;21.246;2024-03-06T03:48:37;45.70;;;26.08;;
22660;SDS011;11497;52.222;21.246;2024-03-06T03:51:06;44.08;;;26.33;;
22660;SDS011;11497;52.222;21.246;2024-03-06T03:53:34;44.80;;;25.70;;
22660;SDS011;11497;52.222;21.246;2024-03-06T03:56:02;46.22;;;25.45;;
22660;SDS011;11497;52.222;21.246;2024-03-06T03:58:30;43.00;;;26.35;;
22660;SDS011;11497;52.222;21.246;2024-03-06T04:00:58;42.63;;;24.90;;
22660;SDS011;11497;52.222;21.246;2024-03-06T04:03:26;42.75;;;25.63;;
22660;SDS011;11497;52.222;21.246;2024-03-06T04:05:55;42.70;;;26.10;;
22660;SDS011;11497;52.222;21.246;2024-03-06T04:08:22;44.55;;;25.20;;
22660;SDS011;11497;52.222;21.246;2024-03-06T04:10:50;40.67;;;24.10;;
22660;SDS011;11497;52.222;21.246;2024-03-06T04:13:18;45.72;;;25.70;;
22660;SDS011;11497;52.222;21.246;2024-03-06T04:15:47;45.97;;;25.20;;
22660;SDS011;11497;52.222;21.246;2024-03-06T04:18:15;42.85;;;24.30;;
22660;SDS011;11497;52.222;21.246;2024-03-06T04:20:43;39.45;;;24.45;;
22660;SDS011;11497;52.222;21.246;2024-03-06T04:23:11;44.45;;;26.10;;
22660;SDS011;11497;52.222;21.246;2024-03-06T04:25:39;42.40;;;25.48;;
22660;SDS011;11497;52.222;21.246;2024-03-06T04:28:07;39.58;;;25.42;;
22660;SDS011;11497;52.222;21.246;2024-03-06T04:30:36;45.60;;;24.85;;
22660;SDS011;11497;52.222;21.246;2024-03-06T04:33:03;39.30;;;25.35;;
22660;SDS011;11497;52.222;21.246;2024-03-06T04:35:32;46.30;;;27.05;;
22660;SDS011;11497;52.222;21.246;2024-03-06T04:38:01;44.15;;;25.42;;
22660;SDS011;11497;52.222;21.246;2024-03-06T04:40:30;44.45;;;25.27;;
22660;SDS011;11497;52.222;21.246;2024-03-06T04:42:58;46.47;;;26.17;;
22660;SDS011;11497;52.222;21.246;2024-03-06T04:45:27;43.28;;;26.10;;
22660;SDS011;11497;52.222;21.246;2024-03-06T04:47:55;46.38;;;26.63;;
22660;SDS011;11497;52.222;21.246;2024-03-06T04:50:23;51.97;;;27.23;;
22660;SDS011;11497;52.222;21.246;2024-03-06T04:52:51;46.47;;;25.73;;
22660;SDS011;11497;52.222;21.246;2024-03-06T04:55:20;43.10;;;24.40;;
22660;SDS011;11497;52.222;21.246;2024-03-06T04:57:49;43.92;;;24.83;;
22660;SDS011;11497;52.222;21.246;2024-03-06T05:00:19;44.90;;;25.85;;
22660;SDS011;11497;52.222;21.246;2024-03-06T05:02:46;44.72;;;26.55;;
22660;SDS011;11497;52.222;21.246;2024-03-06T05:05:33;47.00;;;26.23;;
22660;SDS011;11497;52.222;21.246;2024-03-06T05:08:19;48.42;;;26.75;;
22660;SDS011;11497;52.222;21.246;2024-03-06T05:11:04;45.95;;;25.88;;
22660;SDS011;11497;52.222;21.246;2024-03-06T05:13:50;41.55;;;25.98;;
22660;SDS011;11497;52.222;21.246;2024-03-06T05:16:35;43.95;;;25.30;;
22660;SDS011;11497;52.222;21.246;2024-03-06T05:19:21;44.80;;;25.83;;
22660;SDS011;11497;52.222;21.246;2024-03-06T05:22:06;44.60;;;24.23;;
22660;SDS011;11497;52.222;21.246;2024-03-06T05:24:51;48.47;;;25.05;;
22660;SDS011;11497;52.222;21.246;2024-03-06T05:27:38;37.55;;;23.55;;
22660;SDS011;11497;52.222;21.246;2024-03-06T05:30:23;51.90;;;26.13;;
22660;SDS011;11497;52.222;21.246;2024-03-06T05:33:08;48.42;;;27.52;;
22660;SDS011;11497;52.222;21.246;2024-03-06T05:35:54;40.78;;;23.15;;
22660;SDS011;11497;52.222;21.246;2024-03-06T05:38:40;41.08;;;23.75;;
22660;SDS011;11497;52.222;21.246;2024-03-06T05:41:25;38.92;;;22.35;;
22660;SDS011;11497;52.222;21.246;2024-03-06T05:44:11;40.35;;;23.77;;
22660;SDS011;11497;52.222;21.246;2024-03-06T05:46:57;40.40;;;23.25;;
22660;SDS011;11497;52.222;21.246;2024-03-06T05:49:42;38.40;;;22.25;;
22660;SDS011;11497;52.222;21.246;2024-03-06T05:52:28;40.63;;;23.50;;
22660;SDS011;11497;52.222;21.246;2024-03-06T05:55:13;42.42;;;22.70;;
22660;SDS011;11497;52.222;21.246;2024-03-06T05:57:58;43.22;;;23.77;;
22660;SDS011;11497;52.222;21.246;2024-03-06T06:00:38;43.58;;;22.98;;
22660;SDS011;11497;52.222;21.246;2024-03-06T06:03:07;42.85;;;23.50;;
22660;SDS011;11497;52.222;21.246;2024-03-06T06:05:39;38.67;;;23.00;;
22660;SDS011;11497;52.222;21.246;2024-03-06T06:08:07;36.65;;;22.05;;
22660;SDS011;11497;52.222;21.246;2024-03-06T06:10:35;41.08;;;22.67;;
22660;SDS011;11497;52.222;21.246;2024-03-06T06:13:03;36.55;;;22.17;;
22660;SDS011;11497;52.222;21.246;2024-03-06T06:15:32;42.83;;;23.10;;
22660;SDS011;11497;52.222;21.246;2024-03-06T06:18:00;35.45;;;19.58;;
22660;SDS011;11497;52.222;21.246;2024-03-06T06:20:28;31.77;;;19.38;;
22660;SDS011;11497;52.222;21.246;2024-03-06T06:22:57;34.38;;;19.10;;
22660;SDS011;11497;52.222;21.246;2024-03-06T06:25:25;33.55;;;18.00;;
22660;SDS011;11497;52.222;21.246;2024-03-06T06:27:53;33.25;;;18.45;;
22660;SDS011;11497;52.222;21.246;2024-03-06T06:30:21;30.90;;;18.35;;
22660;SDS011;11497;52.222;21.246;2024-03-06T06:32:49;29.48;;;18.02;;
22660;SDS011;11497;52.222;21.246;2024-03-06T06:35:17;33.20;;;18.67;;
22660;SDS011;11497;52.222;21.246;2024-03-06T06:37:45;29.08;;;17.63;;
22660;SDS011;11497;52.222;21.246;2024-03-06T06:40:13;37.00;;;19.25;;
22660;SDS011;11497;52.222;21.246;2024-03-06T06:42:45;30.52;;;17.15;;
22660;SDS011;11497;52.222;21.246;2024-03-06T06:45:17;32.00;;;16.67;;
22660;SDS011;11497;52.222;21.246;2024-03-06T06:47:46;32.20;;;18.40;;
22660;SDS011;11497;52.222;21.246;2024-03-06T06:50:15;29.75;;;18.38;;
22660;SDS011;11497;52.222;21.246;2024-03-06T06:52:43;38.42;;;21.60;;
22660;SDS011;11497;52.222;21.246;2024-03-06T06:55:11;36.17;;;18.38;;
22660;SDS011;11497;52.222;21.246;2024-03-06T06:57:40;29.80;;;17.40;;
22660;SDS011;11497;52.222;21.246;2024-03-06T07:00:08;33.88;;;18.08;;
22660;SDS011;11497;52.222;21.246;2024-03-06T07:02:39;30.38;;;18.17;;
22660;SDS011;11497;52.222;21.246;2024-03-06T07:05:08;34.35;;;18.83;;
22660;SDS011;11497;52.222;21.246;2024-03-06T07:07:37;30.33;;;18.75;;
22660;SDS011;11497;52.222;21.246;2024-03-06T07:10:06;34.47;;;18.65;;
22660;SDS011;11497;52.222;21.246;2024-03-06T07:12:35;28.45;;;17.63;;
22660;SDS011;11497;52.222;21.246;2024-03-06T07:15:04;34.45;;;18.08;;
22660;SDS011;11497;52.222;21.246;2024-03-06T07:17:33;27.55;;;15.90;;
22660;SDS011;11497;52.222;21.246;2024-03-06T07:20:01;35.17;;;19.90;;
22660;SDS011;11497;52.222;21.246;2024-03-06T07:22:32;33.28;;;17.95;;
22660;SDS011;11497;52.222;21.246;2024-03-06T07:25:01;32.60;;;19.80;;
22660;SDS011;11497;52.222;21.246;2024-03-06T07:27:29;34.08;;;19.83;;
22660;SDS011;11497;52.222;21.246;2024-03-06T07:29:58;31.92;;;18.80;;
22660;SDS011;11497;52.222;21.246;2024-03-06T07:32:25;31.08;;;17.77;;
22660;SDS011;11497;52.222;21.246;2024-03-06T07:34:54;28.42;;;16.65;;
22660;SDS011;11497;52.222;21.246;2024-03-06T07:37:22;30.63;;;17.48;;
22660;SDS011;11497;52.222;21.246;2024-03-06T07:39:50;30.25;;;17.17;;
22660;SDS011;11497;52.222;21.246;2024-03-06T07:42:20;30.13;;;17.00;;
22660;SDS011;11497;52.222;21.246;2024-03-06T07:44:48;30.08;;;17.35;;
22660;SDS011;11497;52.222;21.246;2024-03-06T07:47:17;33.15;;;17.60;;
22660;SDS011;11497;52.222;21.246;2024-03-06T07:49:45;32.35;;;18.00;;
22660;SDS011;11497;52.222;21.246;2024-03-06T07:52:13;32.72;;;19.23;;
22660;SDS011;11497;52.222;21.246;2024-03-06T07:54:41;33.08;;;17.95;;
22660;SDS011;11497;52.222;21.246;2024-03-06T07:57:09;33.08;;;17.60;;
22660;SDS011;11497;52.222;21.246;2024-03-06T07:59:37;31.75;;;19.48;;
22660;SDS011;11497;52.222;21.246;2024-03-06T08:02:05;31.45;;;19.50;;
22660;SDS011;11497;52.222;21.246;2024-03-06T08:04:34;36.53;;;20.70;;
22660;SDS011;11497;52.222;21.246;2024-03-06T08:07:02;36.10;;;19.73;;
22660;SDS011;11497;52.222;21.246;2024-03-06T08:09:30;37.65;;;21.45;;
22660;SDS011;11497;52.222;21.246;2024-03-06T08:11:58;37.53;;;19.10;;
22660;SDS011;11497;52.222;21.246;2024-03-06T08:14:27;34.70;;;18.90;;
22660;SDS011;11497;52.222;21.246;2024-03-06T08:16:55;33.60;;;19.30;;
22660;SDS011;11497;52.222;21.246;2024-03-06T08:19:23;42.63;;;21.48;;
22660;SDS011;11497;52.222;21.246;2024-03-06T08:21:52;49.47;;;25.75;;
22660;SDS011;11497;52.222;21.246;2024-03-06T08:24:20;42.88;;;21.08;;
22660;SDS011;11497;52.222;21.246;2024-03-06T08:26:48;35.67;;;19.48;;
22660;SDS011;11497;52.222;21.246;2024-03-06T08:29:16;35.85;;;19.85;;
22660;SDS011;11497;52.222;21.246;2024-03-06T08:31:44;33.42;;;19.95;;
22660;SDS011;11497;52.222;21.246;2024-03-06T08:34:12;35.30;;;19.77;;
22660;SDS011;11497;52.222;21.246;2024-03-06T08:36:40;33.65;;;19.15;;
22660;SDS011;11497;52.222;21.246;2024-03-06T08:39:08;38.00;;;21.10;;
22660;SDS011;11497;52.222;21.246;2024-03-06T08:41:40;34.30;;;18.98;;
22660;SDS011;11497;52.222;21.246;2024-03-06T08:44:09;32.88;;;17.88;;
22660;SDS011;11497;52.222;21.246;2024-03-06T08:46:37;34.28;;;18.65;;
22660;SDS011;11497;52.222;21.246;2024-03-06T08:49:04;34.60;;;17.45;;
22660;SDS011;11497;52.222;21.246;2024-03-06T08:51:36;34.95;;;18.45;;
22660;SDS011;11497;52.222;21.246;2024-03-06T08:54:04;33.38;;;17.88;;
22660;SDS011;11497;52.222;21.246;2024-03-06T08:56:32;36.55;;;19.15;;
22660;SDS011;11497;52.222;21.246;2024-03-06T08:59:01;35.00;;;18.27;;
22660;SDS011;11497;52.222;21.246;2024-03-06T09:01:29;27.13;;;17.17;;
22660;SDS011;11497;52.222;21.246;2024-03-06T09:03:57;27.83;;;16.88;;
22660;SDS011;11497;52.222;21.246;2024-03-06T09:06:25;29.35;;;15.27;;
22660;SDS011;11497;52.222;21.246;2024-03-06T09:08:54;31.20;;;16.55;;
22660;SDS011;11497;52.222;21.246;2024-03-06T09:11:21;33.92;;;17.27;;
22660;SDS011;11497;52.222;21.246;2024-03-06T09:13:50;31.90;;;16.52;;
22660;SDS011;11497;52.222;21.246;2024-03-06T09:16:18;27.60;;;16.20;;
22660;SDS011;11497;52.222;21.246;2024-03-06T09:18:45;31.50;;;17.08;;
22660;SDS011;11497;52.222;21.246;2024-03-06T09:21:13;32.92;;;17.02;;
22660;SDS011;11497;52.222;21.246;2024-03-06T09:23:44;30.08;;;17.73;;
22660;SDS011;11497;52.222;21.246;2024-03-06T09:26:11;33.17;;;17.90;;
22660;SDS011;11497;52.222;21.246;2024-03-06T09:28:40;31.95;;;17.42;;
22660;SDS011;11497;52.222;21.246;2024-03-06T09:31:07;31.67;;;16.65;;
22660;SDS011;11497;52.222;21.246;2024-03-06T09:33:35;32.28;;;18.00;;
22660;SDS011;11497;52.222;21.246;2024-03-06T09:36:05;30.38;;;17.38;;
22660;SDS011;11497;52.222;21.246;2024-03-06T09:38:34;36.47;;;18.33;;
22660;SDS011;11497;52.222;21.246;2024-03-06T09:41:04;31.40;;;17.15;;
22660;SDS011;11497;52.222;21.246;2024-03-06T09:43:32;37.22;;;18.17;;
22660;SDS011;11497;52.222;21.246;2024-03-06T09:46:00;30.88;;;16.90;;
22660;SDS011;11497;52.222;21.246;2024-03-06T09:48:29;37.33;;;19.75;;
22660;SDS011;11497;52.222;21.246;2024-03-06T09:51:00;35.63;;;18.17;;
22660;SDS011;11497;52.222;21.246;2024-03-06T09:53:31;36.45;;;17.88;;
22660;SDS011;11497;52.222;21.246;2024-03-06T09:56:00;35.60;;;18.15;;
22660;SDS011;11497;52.222;21.246;2024-03-06T09:58:28;32.78;;;18.42;;
22660;SDS011;11497;52.222;21.246;2024-03-06T10:00:56;33.13;;;18.70;;
22660;SDS011;11497;52.222;21.246;2024-03-06T10:03:27;32.25;;;17.83;;
22660;SDS011;11497;52.222;21.246;2024-03-06T10:05:55;33.58;;;17.85;;
22660;SDS011;11497;52.222;21.246;2024-03-06T10:08:25;39.42;;;19.55;;
22660;SDS011;11497;52.222;21.246;2024-03-06T10:10:54;41.70;;;21.65;;
22660;SDS011;11497;52.222;21.246;2024-03-06T10:13:23;38.78;;;19.63;;
22660;SDS011;11497;52.222;21.246;2024-03-06T10:15:58;41.00;;;19.13;;
22660;SDS011;11497;52.222;21.246;2024-03-06T10:18:28;35.78;;;19.27;;
22660;SDS011;11497;52.222;21.246;2024-03-06T10:20:57;42.00;;;19.90;;
22660;SDS011;11497;52.222;21.246;2024-03-06T10:23:26;36.33;;;18.80;;
22660;SDS011;11497;52.222;21.246;2024-03-06T10:25:56;38.70;;;20.33;;
22660;SDS011;11497;52.222;21.246;2024-03-06T10:28:24;39.15;;;18.80;;
22660;SDS011;11497;52.222;21.246;2024-03-06T10:31:01;27.92;;;15.55;;
22660;SDS011;11497;52.222;21.246;2024-03-06T10:33:31;35.40;;;18.13;;
22660;SDS011;11497;52.222;21.246;2024-03-06T10:36:00;32.30;;;15.77;;
22660;SDS011;11497;52.222;21.246;2024-03-06T10:38:31;29.77;;;15.52;;
22660;SDS011;11497;52.222;21.246;2024-03-06T10:41:08;31.85;;;16.15;;
22660;SDS011;11497;52.222;21.246;2024-03-06T10:43:42;31.33;;;15.63;;
22660;SDS011;11497;52.222;21.246;2024-03-06T10:46:15;29.88;;;14.38;;
22660;SDS011;11497;52.222;21.246;2024-03-06T10:48:46;28.10;;;14.98;;
22660;SDS011;11497;52.222;21.246;2024-03-06T10:51:16;24.80;;;13.57;;
22660;SDS011;11497;52.222;21.246;2024-03-06T10:53:45;24.38;;;13.73;;
22660;SDS011;11497;52.222;21.246;2024-03-06T10:56:15;24.73;;;13.23;;
22660;SDS011;11497;52.222;21.246;2024-03-06T10:58:46;22.63;;;12.90;;
22660;SDS011;11497;52.222;21.246;2024-03-06T11:01:18;21.67;;;12.48;;
22660;SDS011;11497;52.222;21.246;2024-03-06T11:03:47;27.15;;;13.38;;
22660;SDS011;11497;52.222;21.246;2024-03-06T11:06:15;24.52;;;13.65;;
22660;SDS011;11497;52.222;21.246;2024-03-06T11:08:44;24.48;;;13.45;;
22660;SDS011;11497;52.222;21.246;2024-03-06T11:11:19;24.52;;;13.45;;
22660;SDS011;11497;52.222;21.246;2024-03-06T11:13:49;20.83;;;12.95;;
22660;SDS011;11497;52.222;21.246;2024-03-06T11:16:30;28.67;;;12.95;;
22660;SDS011;11497;52.222;21.246;2024-03-06T11:24:15;20.67;;;11.52;;
22660;SDS011;11497;52.222;21.246;2024-03-06T11:26:47;21.23;;;11.25;;
22660;SDS011;11497;52.222;21.246;2024-03-06T11:29:27;16.60;;;10.45;;
22660;SDS011;11497;52.222;21.246;2024-03-06T11:32:16;19.00;;;11.07;;
22660;SDS011;11497;52.222;21.246;2024-03-06T11:34:44;22.15;;;11.82;;
22660;SDS011;11497;52.222;21.246;2024-03-06T11:37:12;23.10;;;12.32;;
22660;SDS011;11497;52.222;21.246;2024-03-06T11:39:47;19.63;;;10.82;;
22660;SDS011;11497;52.222;21.246;2024-03-06T11:42:15;18.23;;;10.52;;
22660;SDS011;11497;52.222;21.246;2024-03-06T11:44:53;18.80;;;10.57;;
22660;SDS011;11497;52.222;21.246;2024-03-06T11:47:24;19.27;;;11.70;;
22660;SDS011;11497;52.222;21.246;2024-03-06T11:49:52;17.85;;;10.13;;
22660;SDS011;11497;52.222;21.246;2024-03-06T11:52:21;17.98;;;10.15;;
22660;SDS011;11497;52.222;21.246;2024-03-06T11:54:49;21.95;;;10.15;;
22660;SDS011;11497;52.222;21.246;2024-03-06T11:57:19;19.45;;;10.38;;
22660;SDS011;11497;52.222;21.246;2024-03-06T11:59:48;18.98;;;10.07;;
22660;SDS011;11497;52.222;21.246;2024-03-06T12:02:16;16.77;;;10.13;;
22660;SDS011;11497;52.222;21.246;2024-03-06T12:04:44;21.35;;;11.10;;
22660;SDS011;11497;52.222;21.246;2024-03-06T12:07:12;20.52;;;10.32;;
22660;SDS011;11497;52.222;21.246;2024-03-06T12:09:40;15.70;;;9.90;;
22660;SDS011;11497;52.222;21.246;2024-03-06T12:12:10;17.65;;;9.88;;
22660;SDS011;11497;52.222;21.246;2024-03-06T12:14:39;17.13;;;10.05;;
22660;SDS011;11497;52.222;21.246;2024-03-06T12:17:11;20.95;;;10.90;;
22660;SDS011;11497;52.222;21.246;2024-03-06T12:19:43;18.73;;;10.20;;
22660;SDS011;11497;52.222;21.246;2024-03-06T12:22:12;16.88;;;10.02;;
22660;SDS011;11497;52.222;21.246;2024-03-06T12:24:42;14.52;;;9.02;;
22660;SDS011;11497;52.222;21.246;2024-03-06T12:27:10;14.50;;;8.65;;
22660;SDS011;11497;52.222;21.246;2024-03-06T12:29:40;17.60;;;8.70;;
22660;SDS011;11497;52.222;21.246;2024-03-06T12:32:16;16.05;;;9.05;;
22660;SDS011;11497;52.222;21.246;2024-03-06T12:34:56;13.57;;;8.52;;
22660;SDS011;11497;52.222;21.246;2024-03-06T12:37:29;14.85;;;8.13;;
22660;SDS011;11497;52.222;21.246;2024-03-06T12:40:02;14.00;;;8.45;;
22660;SDS011;11497;52.222;21.246;2024-03-06T12:42:32;12.38;;;8.48;;
22660;SDS011;11497;52.222;21.246;2024-03-06T12:45:00;16.48;;;8.45;;
22660;SDS011;11497;52.222;21.246;2024-03-06T12:47:30;14.93;;;9.07;;
22660;SDS011;11497;52.222;21.246;2024-03-06T12:49:58;15.65;;;9.23;;
22660;SDS011;11497;52.222;21.246;2024-03-06T12:52:26;17.55;;;9.45;;
22660;SDS011;11497;52.222;21.246;2024-03-06T12:54:54;14.32;;;8.38;;
22660;SDS011;11497;52.222;21.246;2024-03-06T12:57:22;15.45;;;9.15;;
22660;SDS011;11497;52.222;21.246;2024-03-06T12:59:50;16.45;;;9.02;;
22660;SDS011;11497;52.222;21.246;2024-03-06T13:02:18;17.38;;;9.35;;
22660;SDS011;11497;52.222;21.246;2024-03-06T13:04:46;12.88;;;8.38;;
22660;SDS011;11497;52.222;21.246;2024-03-06T13:07:14;13.45;;;7.80;;
22660;SDS011;11497;52.222;21.246;2024-03-06T13:09:42;14.82;;;8.98;;
22660;SDS011;11497;52.222;21.246;2024-03-06T13:12:10;15.23;;;8.70;;
22660;SDS011;11497;52.222;21.246;2024-03-06T13:14:38;15.32;;;8.65;;
22660;SDS011;11497;52.222;21.246;2024-03-06T13:17:06;15.82;;;9.48;;
22660;SDS011;11497;52.222;21.246;2024-03-06T13:19:34;17.75;;;8.95;;
22660;SDS011;11497;52.222;21.246;2024-03-06T13:22:02;16.67;;;9.30;;
22660;SDS011;11497;52.222;21.246;2024-03-06T13:24:34;17.65;;;8.90;;
22660;SDS011;11497;52.222;21.246;2024-03-06T13:27:06;18.40;;;8.75;;
22660;SDS011;11497;52.222;21.246;2024-03-06T13:29:34;17.30;;;9.68;;
22660;SDS011;11497;52.222;21.246;2024-03-06T13:32:03;19.50;;;10.13;;
22660;SDS011;11497;52.222;21.246;2024-03-06T13:34:31;13.25;;;8.98;;
22660;SDS011;11497;52.222;21.246;2024-03-06T13:36:59;16.05;;;9.38;;
22660;SDS011;11497;52.222;21.246;2024-03-06T13:39:27;17.50;;;9.80;;
22660;SDS011;11497;52.222;21.246;2024-03-06T13:41:55;18.60;;;9.45;;
22660;SDS011;11497;52.222;21.246;2024-03-06T13:44:23;19.30;;;9.45;;
22660;SDS011;11497;52.222;21.246;2024-03-06T13:46:51;15.75;;;8.75;;
22660;SDS011;11497;52.222;21.246;2024-03-06T13:52:07;18.92;;;9.05;;
22660;SDS011;11497;52.222;21.246;2024-03-06T13:54:41;14.90;;;7.60;;
22660;SDS011;11497;52.222;21.246;2024-03-06T13:57:10;19.13;;;9.50;;
22660;SDS011;11497;52.222;21.246;2024-03-06T13:59:38;16.83;;;9.40;;
22660;SDS011;11497;52.222;21.246;2024-03-06T14:02:06;16.65;;;9.57;;
22660;SDS011;11497;52.222;21.246;2024-03-06T14:04:35;20.25;;;9.98;;
22660;SDS011;11497;52.222;21.246;2024-03-06T14:07:03;18.88;;;10.00;;
22660;SDS011;11497;52.222;21.246;2024-03-06T14:09:31;18.83;;;9.73;;
22660;SDS011;11497;52.222;21.246;2024-03-06T14:11:59;20.55;;;9.98;;
22660;SDS011;11497;52.222;21.246;2024-03-06T14:14:27;21.55;;;11.15;;
22660;SDS011;11497;52.222;21.246;2024-03-06T14:16:55;17.25;;;11.27;;
22660;SDS011;11497;52.222;21.246;2024-03-06T14:19:23;22.33;;;10.95;;
22660;SDS011;11497;52.222;21.246;2024-03-06T14:21:51;18.98;;;11.40;;
22660;SDS011;11497;52.222;21.246;2024-03-06T14:24:19;23.75;;;12.93;;
22660;SDS011;11497;52.222;21.246;2024-03-06T14:26:47;18.38;;;11.20;;
22660;SDS011;11497;52.222;21.246;2024-03-06T14:29:16;22.45;;;11.27;;
22660;SDS011;11497;52.222;21.246;2024-03-06T14:31:43;21.83;;;11.90;;